sensor_id;sensor_type;location;lat;lon;timestamp;P1;durP1;ratioP1;P2;durP2;ratioP2
70707;SDS011;58277;47.316;18.908;2023-04-01T00:02:06;3.55;;;2.20;;
70707;SDS011;58277;47.316;18.908;2023-04-01T00:04:29;5.05;;;2.35;;
70707;SDS011;58277;47.316;18.908;2023-04-01T00:06:52;5.20;;;2.07;;
70707;SDS011;58277;47.316;18.908;2023-04-01T00:09:15;4.43;;;2.30;;
70707;SDS011;58277;47.316;18.908;2023-04-01T00:11:37;5.35;;;2.30;;
70707;SDS011;58277;47.316;18.908;2023-04-01T00:14:00;4.85;;;2.70;;
70707;SDS011;58277;47.316;18.908;2023-04-01T00:16:23;5.47;;;2.30;;
70707;SDS011;58277;47.316;18.908;2023-04-01T00:18:47;5.53;;;2.43;;
70707;SDS011;58277;47.316;18.908;2023-04-01T00:21:09;4.30;;;2.70;;
70707;SDS011;58277;47.316;18.908;2023-04-01T00:23:32;4.15;;;2.30;;
70707;SDS011;58277;47.316;18.908;2023-04-01T00:25:55;5.50;;;2.65;;
70707;SDS011;58277;47.316;18.908;2023-04-01T00:28:18;5.47;;;2.60;;
70707;SDS011;58277;47.316;18.908;2023-04-01T00:30:42;4.50;;;2.30;;
70707;SDS011;58277;47.316;18.908;2023-04-01T00:33:04;5.03;;;3.00;;
70707;SDS011;58277;47.316;18.908;2023-04-01T00:35:27;5.20;;;2.70;;
70707;SDS011;58277;47.316;18.908;2023-04-01T00:37:50;4.63;;;2.67;;
70707;SDS011;58277;47.316;18.908;2023-04-01T00:40:30;5.18;;;2.70;;
70707;SDS011;58277;47.316;18.908;2023-04-01T00:42:55;4.37;;;2.67;;
70707;SDS011;58277;47.316;18.908;2023-04-01T00:45:38;5.00;;;3.10;;
70707;SDS011;58277;47.316;18.908;2023-04-01T00:48:14;5.05;;;3.13;;
70707;SDS011;58277;47.316;18.908;2023-04-01T00:50:40;4.80;;;2.88;;
70707;SDS011;58277;47.316;18.908;2023-04-01T00:53:04;6.30;;;2.70;;
70707;SDS011;58277;47.316;18.908;2023-04-01T00:55:28;5.90;;;2.97;;
70707;SDS011;58277;47.316;18.908;2023-04-01T00:57:53;4.75;;;2.92;;
70707;SDS011;58277;47.316;18.908;2023-04-01T01:00:18;5.30;;;2.90;;
70707;SDS011;58277;47.316;18.908;2023-04-01T01:02:41;6.32;;;2.90;;
70707;SDS011;58277;47.316;18.908;2023-04-01T01:05:06;4.88;;;2.75;;
70707;SDS011;58277;47.316;18.908;2023-04-01T01:07:42;5.70;;;2.93;;
70707;SDS011;58277;47.316;18.908;2023-04-01T01:10:17;4.80;;;2.78;;
70707;SDS011;58277;47.316;18.908;2023-04-01T01:12:43;5.45;;;2.90;;
70707;SDS011;58277;47.316;18.908;2023-04-01T01:15:16;4.75;;;3.00;;
70707;SDS011;58277;47.316;18.908;2023-04-01T01:23:02;5.30;;;3.00;;
70707;SDS011;58277;47.316;18.908;2023-04-01T01:34:19;5.22;;;3.00;;
70707;SDS011;58277;47.316;18.908;2023-04-01T01:36:53;5.35;;;2.97;;
70707;SDS011;58277;47.316;18.908;2023-04-01T01:39:20;4.65;;;3.03;;
70707;SDS011;58277;47.316;18.908;2023-04-01T01:41:49;4.22;;;2.60;;
70707;SDS011;58277;47.316;18.908;2023-04-01T01:44:12;5.82;;;3.22;;
70707;SDS011;58277;47.316;18.908;2023-04-01T01:46:36;5.40;;;3.13;;
70707;SDS011;58277;47.316;18.908;2023-04-01T01:49:02;5.10;;;3.30;;
70707;SDS011;58277;47.316;18.908;2023-04-01T01:51:26;7.40;;;3.08;;
70707;SDS011;58277;47.316;18.908;2023-04-01T01:53:50;4.90;;;2.85;;
70707;SDS011;58277;47.316;18.908;2023-04-01T01:56:14;5.63;;;2.95;;
70707;SDS011;58277;47.316;18.908;2023-04-01T01:58:42;5.50;;;2.90;;
70707;SDS011;58277;47.316;18.908;2023-04-01T02:01:11;4.75;;;2.83;;
70707;SDS011;58277;47.316;18.908;2023-04-01T02:03:39;5.40;;;2.90;;
70707;SDS011;58277;47.316;18.908;2023-04-01T02:06:04;5.22;;;2.80;;
70707;SDS011;58277;47.316;18.908;2023-04-01T02:10:58;5.87;;;3.03;;
70707;SDS011;58277;47.316;18.908;2023-04-01T02:13:40;5.40;;;2.72;;
70707;SDS011;58277;47.316;18.908;2023-04-01T02:16:26;7.45;;;2.90;;
70707;SDS011;58277;47.316;18.908;2023-04-01T02:18:54;5.00;;;2.65;;
70707;SDS011;58277;47.316;18.908;2023-04-01T02:21:19;4.68;;;2.60;;
70707;SDS011;58277;47.316;18.908;2023-04-01T02:23:43;4.60;;;2.63;;
70707;SDS011;58277;47.316;18.908;2023-04-01T02:26:07;5.05;;;3.00;;
70707;SDS011;58277;47.316;18.908;2023-04-01T02:28:34;4.25;;;2.70;;
70707;SDS011;58277;47.316;18.908;2023-04-01T02:31:00;3.88;;;2.53;;
70707;SDS011;58277;47.316;18.908;2023-04-01T02:33:27;4.50;;;2.25;;
70707;SDS011;58277;47.316;18.908;2023-04-01T02:35:51;5.40;;;2.30;;
70707;SDS011;58277;47.316;18.908;2023-04-01T02:38:14;5.05;;;2.80;;
70707;SDS011;58277;47.316;18.908;2023-04-01T02:40:57;4.47;;;2.47;;
70707;SDS011;58277;47.316;18.908;2023-04-01T02:43:22;6.05;;;2.83;;
70707;SDS011;58277;47.316;18.908;2023-04-01T02:45:45;5.45;;;2.63;;
70707;SDS011;58277;47.316;18.908;2023-04-01T02:48:08;4.53;;;2.43;;
70707;SDS011;58277;47.316;18.908;2023-04-01T02:50:31;4.05;;;2.45;;
70707;SDS011;58277;47.316;18.908;2023-04-01T02:52:53;4.57;;;2.67;;
70707;SDS011;58277;47.316;18.908;2023-04-01T02:55:16;4.88;;;2.60;;
70707;SDS011;58277;47.316;18.908;2023-04-01T02:57:39;5.07;;;2.53;;
70707;SDS011;58277;47.316;18.908;2023-04-01T03:00:02;4.90;;;2.70;;
70707;SDS011;58277;47.316;18.908;2023-04-01T03:02:25;5.45;;;2.30;;
70707;SDS011;58277;47.316;18.908;2023-04-01T03:04:48;5.00;;;2.53;;
70707;SDS011;58277;47.316;18.908;2023-04-01T03:07:10;4.60;;;2.53;;
70707;SDS011;58277;47.316;18.908;2023-04-01T03:09:33;5.25;;;2.40;;
70707;SDS011;58277;47.316;18.908;2023-04-01T03:11:56;5.03;;;2.37;;
70707;SDS011;58277;47.316;18.908;2023-04-01T03:14:19;4.93;;;2.35;;
70707;SDS011;58277;47.316;18.908;2023-04-01T03:16:41;5.30;;;2.38;;
70707;SDS011;58277;47.316;18.908;2023-04-01T03:19:04;5.57;;;2.70;;
70707;SDS011;58277;47.316;18.908;2023-04-01T03:21:27;5.97;;;2.67;;
70707;SDS011;58277;47.316;18.908;2023-04-01T03:23:50;5.17;;;2.90;;
70707;SDS011;58277;47.316;18.908;2023-04-01T03:26:13;5.50;;;2.60;;
70707;SDS011;58277;47.316;18.908;2023-04-01T03:28:37;5.20;;;2.33;;
70707;SDS011;58277;47.316;18.908;2023-04-01T03:30:59;4.43;;;2.20;;
70707;SDS011;58277;47.316;18.908;2023-04-01T03:33:24;4.68;;;2.58;;
70707;SDS011;58277;47.316;18.908;2023-04-01T03:35:47;5.23;;;2.50;;
70707;SDS011;58277;47.316;18.908;2023-04-01T03:38:10;4.97;;;2.42;;
70707;SDS011;58277;47.316;18.908;2023-04-01T03:40:33;4.85;;;2.50;;
70707;SDS011;58277;47.316;18.908;2023-04-01T03:42:59;4.63;;;2.33;;
70707;SDS011;58277;47.316;18.908;2023-04-01T03:45:22;5.57;;;2.60;;
70707;SDS011;58277;47.316;18.908;2023-04-01T03:47:45;5.00;;;2.63;;
70707;SDS011;58277;47.316;18.908;2023-04-01T03:50:08;5.07;;;2.83;;
70707;SDS011;58277;47.316;18.908;2023-04-01T03:52:32;5.35;;;2.72;;
70707;SDS011;58277;47.316;18.908;2023-04-01T03:54:55;5.57;;;2.65;;
70707;SDS011;58277;47.316;18.908;2023-04-01T03:57:18;4.75;;;2.65;;
70707;SDS011;58277;47.316;18.908;2023-04-01T03:59:41;5.90;;;2.60;;
70707;SDS011;58277;47.316;18.908;2023-04-01T04:02:04;3.67;;;2.30;;
70707;SDS011;58277;47.316;18.908;2023-04-01T04:04:27;3.65;;;2.10;;
70707;SDS011;58277;47.316;18.908;2023-04-01T04:06:50;4.45;;;2.53;;
70707;SDS011;58277;47.316;18.908;2023-04-01T04:09:15;4.78;;;2.58;;
70707;SDS011;58277;47.316;18.908;2023-04-01T04:11:38;7.50;;;2.30;;
70707;SDS011;58277;47.316;18.908;2023-04-01T04:14:01;4.90;;;2.35;;
70707;SDS011;58277;47.316;18.908;2023-04-01T04:16:24;5.75;;;2.63;;
70707;SDS011;58277;47.316;18.908;2023-04-01T04:18:52;5.18;;;2.35;;
70707;SDS011;58277;47.316;18.908;2023-04-01T04:21:14;4.32;;;2.28;;
70707;SDS011;58277;47.316;18.908;2023-04-01T04:23:38;5.47;;;2.60;;
70707;SDS011;58277;47.316;18.908;2023-04-01T04:26:01;5.93;;;2.40;;
70707;SDS011;58277;47.316;18.908;2023-04-01T04:28:27;5.22;;;2.55;;
70707;SDS011;58277;47.316;18.908;2023-04-01T04:30:53;5.40;;;2.50;;
70707;SDS011;58277;47.316;18.908;2023-04-01T04:33:17;4.43;;;2.75;;
70707;SDS011;58277;47.316;18.908;2023-04-01T04:35:39;5.83;;;2.20;;
70707;SDS011;58277;47.316;18.908;2023-04-01T04:38:02;4.72;;;2.40;;
70707;SDS011;58277;47.316;18.908;2023-04-01T04:40:25;4.65;;;2.42;;
70707;SDS011;58277;47.316;18.908;2023-04-01T04:42:48;4.50;;;2.20;;
70707;SDS011;58277;47.316;18.908;2023-04-01T04:45:11;5.07;;;2.40;;
70707;SDS011;58277;47.316;18.908;2023-04-01T04:47:40;4.47;;;2.50;;
70707;SDS011;58277;47.316;18.908;2023-04-01T04:50:04;4.10;;;1.80;;
70707;SDS011;58277;47.316;18.908;2023-04-01T04:52:27;3.72;;;1.90;;
70707;SDS011;58277;47.316;18.908;2023-04-01T04:54:50;3.22;;;1.60;;
70707;SDS011;58277;47.316;18.908;2023-04-01T04:57:13;3.38;;;1.60;;
70707;SDS011;58277;47.316;18.908;2023-04-01T04:59:42;4.03;;;1.60;;
70707;SDS011;58277;47.316;18.908;2023-04-01T05:02:13;2.53;;;1.60;;
70707;SDS011;58277;47.316;18.908;2023-04-01T05:04:36;2.50;;;1.70;;
70707;SDS011;58277;47.316;18.908;2023-04-01T05:07:01;2.55;;;1.30;;
70707;SDS011;58277;47.316;18.908;2023-04-01T05:09:25;2.70;;;1.67;;
70707;SDS011;58277;47.316;18.908;2023-04-01T05:11:47;2.42;;;1.58;;
70707;SDS011;58277;47.316;18.908;2023-04-01T05:14:14;2.10;;;1.20;;
70707;SDS011;58277;47.316;18.908;2023-04-01T05:16:43;2.75;;;1.40;;
70707;SDS011;58277;47.316;18.908;2023-04-01T05:19:06;3.80;;;1.33;;
70707;SDS011;58277;47.316;18.908;2023-04-01T05:21:29;2.60;;;1.40;;
70707;SDS011;58277;47.316;18.908;2023-04-01T05:23:52;2.38;;;1.10;;
70707;SDS011;58277;47.316;18.908;2023-04-01T05:26:15;1.90;;;1.13;;
70707;SDS011;58277;47.316;18.908;2023-04-01T05:28:38;2.03;;;1.20;;
70707;SDS011;58277;47.316;18.908;2023-04-01T05:31:01;2.50;;;1.00;;
70707;SDS011;58277;47.316;18.908;2023-04-01T05:33:30;3.38;;;1.33;;
70707;SDS011;58277;47.316;18.908;2023-04-01T05:35:53;2.42;;;1.20;;
70707;SDS011;58277;47.316;18.908;2023-04-01T05:38:17;2.25;;;1.30;;
70707;SDS011;58277;47.316;18.908;2023-04-01T05:40:39;2.40;;;1.20;;
70707;SDS011;58277;47.316;18.908;2023-04-01T05:43:02;1.65;;;1.05;;
70707;SDS011;58277;47.316;18.908;2023-04-01T05:45:25;3.53;;;1.10;;
70707;SDS011;58277;47.316;18.908;2023-04-01T05:47:53;2.00;;;1.00;;
70707;SDS011;58277;47.316;18.908;2023-04-01T05:50:16;1.48;;;1.10;;
70707;SDS011;58277;47.316;18.908;2023-04-01T05:52:40;2.00;;;1.00;;
70707;SDS011;58277;47.316;18.908;2023-04-01T05:55:03;2.30;;;1.13;;
70707;SDS011;58277;47.316;18.908;2023-04-01T05:57:26;2.05;;;1.15;;
70707;SDS011;58277;47.316;18.908;2023-04-01T05:59:49;2.80;;;1.15;;
70707;SDS011;58277;47.316;18.908;2023-04-01T06:02:12;2.00;;;1.10;;
70707;SDS011;58277;47.316;18.908;2023-04-01T06:04:37;2.42;;;1.25;;
70707;SDS011;58277;47.316;18.908;2023-04-01T06:07:01;2.20;;;1.13;;
70707;SDS011;58277;47.316;18.908;2023-04-01T06:09:33;2.15;;;0.95;;
70707;SDS011;58277;47.316;18.908;2023-04-01T06:12:18;2.15;;;1.10;;
70707;SDS011;58277;47.316;18.908;2023-04-01T06:26:10;3.42;;;1.25;;
70707;SDS011;58277;47.316;18.908;2023-04-01T06:28:56;4.30;;;1.33;;
70707;SDS011;58277;47.316;18.908;2023-04-01T06:42:50;2.25;;;1.10;;
70707;SDS011;58277;47.316;18.908;2023-04-01T06:45:31;4.53;;;1.40;;
70707;SDS011;58277;47.316;18.908;2023-04-01T06:48:31;3.10;;;1.15;;
70707;SDS011;58277;47.316;18.908;2023-04-01T06:54:17;2.35;;;1.13;;
70707;SDS011;58277;47.316;18.908;2023-04-01T06:57:03;1.70;;;0.98;;
70707;SDS011;58277;47.316;18.908;2023-04-01T06:59:37;1.98;;;1.10;;
70707;SDS011;58277;47.316;18.908;2023-04-01T07:02:13;2.55;;;1.13;;
70707;SDS011;58277;47.316;18.908;2023-04-01T07:04:44;4.72;;;1.15;;
70707;SDS011;58277;47.316;18.908;2023-04-01T07:07:25;1.80;;;1.15;;
70707;SDS011;58277;47.316;18.908;2023-04-01T07:09:56;2.70;;;1.23;;
70707;SDS011;58277;47.316;18.908;2023-04-01T07:12:51;3.35;;;1.35;;
70707;SDS011;58277;47.316;18.908;2023-04-01T07:15:38;3.38;;;1.50;;
70707;SDS011;58277;47.316;18.908;2023-04-01T07:18:06;2.17;;;1.20;;
70707;SDS011;58277;47.316;18.908;2023-04-01T07:20:38;2.15;;;1.48;;
70707;SDS011;58277;47.316;18.908;2023-04-01T07:26:22;6.07;;;1.80;;
70707;SDS011;58277;47.316;18.908;2023-04-01T07:28:58;3.92;;;1.40;;
70707;SDS011;58277;47.316;18.908;2023-04-01T07:37:06;2.05;;;1.30;;
70707;SDS011;58277;47.316;18.908;2023-04-01T07:45:03;2.97;;;1.95;;
70707;SDS011;58277;47.316;18.908;2023-04-01T07:53:38;4.53;;;1.70;;
70707;SDS011;58277;47.316;18.908;2023-04-01T08:05:19;2.50;;;1.20;;
70707;SDS011;58277;47.316;18.908;2023-04-01T08:14:02;2.42;;;1.20;;
70707;SDS011;58277;47.316;18.908;2023-04-01T08:17:05;2.95;;;1.00;;
70707;SDS011;58277;47.316;18.908;2023-04-01T08:22:50;2.47;;;1.17;;
70707;SDS011;58277;47.316;18.908;2023-04-01T08:25:28;3.15;;;1.33;;
70707;SDS011;58277;47.316;18.908;2023-04-01T08:28:03;2.88;;;1.10;;
70707;SDS011;58277;47.316;18.908;2023-04-01T08:30:42;2.40;;;1.13;;
70707;SDS011;58277;47.316;18.908;2023-04-01T08:33:20;2.65;;;1.30;;
70707;SDS011;58277;47.316;18.908;2023-04-01T08:35:58;3.95;;;1.70;;
70707;SDS011;58277;47.316;18.908;2023-04-01T08:41:00;4.15;;;1.52;;
70707;SDS011;58277;47.316;18.908;2023-04-01T08:49:56;2.83;;;1.00;;
70707;SDS011;58277;47.316;18.908;2023-04-01T09:19:17;3.38;;;1.30;;
70707;SDS011;58277;47.316;18.908;2023-04-01T09:34:00;2.55;;;1.30;;
70707;SDS011;58277;47.316;18.908;2023-04-01T09:39:41;2.65;;;1.33;;
70707;SDS011;58277;47.316;18.908;2023-04-01T09:44:54;2.10;;;1.30;;
70707;SDS011;58277;47.316;18.908;2023-04-01T09:53:05;3.58;;;1.50;;
70707;SDS011;58277;47.316;18.908;2023-04-01T10:19:16;2.42;;;1.20;;
70707;SDS011;58277;47.316;18.908;2023-04-01T10:24:31;2.72;;;1.33;;
70707;SDS011;58277;47.316;18.908;2023-04-01T10:49:59;2.88;;;1.40;;
70707;SDS011;58277;47.316;18.908;2023-04-01T10:58:28;2.05;;;1.20;;
70707;SDS011;58277;47.316;18.908;2023-04-01T11:33:31;1.67;;;0.90;;
70707;SDS011;58277;47.316;18.908;2023-04-01T12:03:15;1.63;;;0.80;;
70707;SDS011;58277;47.316;18.908;2023-04-01T12:11:09;3.08;;;0.95;;
70707;SDS011;58277;47.316;18.908;2023-04-01T12:19:16;1.88;;;0.80;;
70707;SDS011;58277;47.316;18.908;2023-04-01T12:35:24;4.53;;;0.90;;
70707;SDS011;58277;47.316;18.908;2023-04-01T12:46:13;2.38;;;1.13;;
70707;SDS011;58277;47.316;18.908;2023-04-01T12:59:46;2.10;;;0.85;;
70707;SDS011;58277;47.316;18.908;2023-04-01T13:02:27;1.95;;;0.98;;
70707;SDS011;58277;47.316;18.908;2023-04-01T13:05:23;2.75;;;1.20;;
70707;SDS011;58277;47.316;18.908;2023-04-01T13:08:53;2.50;;;1.00;;
70707;SDS011;58277;47.316;18.908;2023-04-01T13:11:09;2.42;;;1.25;;
70707;SDS011;58277;47.316;18.908;2023-04-01T13:14:03;2.25;;;1.10;;
70707;SDS011;58277;47.316;18.908;2023-04-01T13:19:38;2.25;;;1.10;;
70707;SDS011;58277;47.316;18.908;2023-04-01T13:27:39;2.95;;;1.10;;
70707;SDS011;58277;47.316;18.908;2023-04-01T13:30:23;2.17;;;1.10;;
70707;SDS011;58277;47.316;18.908;2023-04-01T13:41:05;2.33;;;0.93;;
70707;SDS011;58277;47.316;18.908;2023-04-01T13:46:27;2.17;;;1.13;;
70707;SDS011;58277;47.316;18.908;2023-04-01T13:52:34;1.90;;;1.02;;
70707;SDS011;58277;47.316;18.908;2023-04-01T14:03:13;2.28;;;1.20;;
70707;SDS011;58277;47.316;18.908;2023-04-01T14:08:33;3.17;;;1.10;;
70707;SDS011;58277;47.316;18.908;2023-04-01T14:45:54;3.63;;;1.50;;
70707;SDS011;58277;47.316;18.908;2023-04-01T14:51:15;2.55;;;1.15;;
70707;SDS011;58277;47.316;18.908;2023-04-01T14:59:14;2.85;;;1.30;;
70707;SDS011;58277;47.316;18.908;2023-04-01T15:15:59;2.75;;;1.60;;
70707;SDS011;58277;47.316;18.908;2023-04-01T15:32:28;2.45;;;1.58;;
70707;SDS011;58277;47.316;18.908;2023-04-01T15:41:02;4.65;;;1.90;;
70707;SDS011;58277;47.316;18.908;2023-04-01T15:43:45;3.72;;;1.88;;
70707;SDS011;58277;47.316;18.908;2023-04-01T15:49:08;2.70;;;1.08;;
70707;SDS011;58277;47.316;18.908;2023-04-01T15:59:40;2.90;;;1.30;;
70707;SDS011;58277;47.316;18.908;2023-04-01T16:05:51;2.13;;;0.90;;
70707;SDS011;58277;47.316;18.908;2023-04-01T16:21:33;1.90;;;0.82;;
70707;SDS011;58277;47.316;18.908;2023-04-01T16:23:59;1.63;;;0.55;;
70707;SDS011;58277;47.316;18.908;2023-04-01T16:26:53;3.78;;;1.23;;
70707;SDS011;58277;47.316;18.908;2023-04-01T16:29:27;5.78;;;1.60;;
70707;SDS011;58277;47.316;18.908;2023-04-01T16:32:38;4.63;;;1.60;;
70707;SDS011;58277;47.316;18.908;2023-04-01T16:45:40;3.15;;;1.10;;
70707;SDS011;58277;47.316;18.908;2023-04-01T16:48:43;2.25;;;1.13;;
70707;SDS011;58277;47.316;18.908;2023-04-01T16:51:36;2.95;;;1.00;;
70707;SDS011;58277;47.316;18.908;2023-04-01T16:59:37;2.70;;;1.40;;
70707;SDS011;58277;47.316;18.908;2023-04-01T17:04:33;4.15;;;2.10;;
70707;SDS011;58277;47.316;18.908;2023-04-01T17:07:10;2.78;;;1.58;;
70707;SDS011;58277;47.316;18.908;2023-04-01T17:22:54;4.55;;;2.50;;
70707;SDS011;58277;47.316;18.908;2023-04-01T17:25:37;3.63;;;1.90;;
70707;SDS011;58277;47.316;18.908;2023-04-01T17:33:30;9.13;;;3.83;;
70707;SDS011;58277;47.316;18.908;2023-04-01T17:35:57;9.85;;;4.10;;
70707;SDS011;58277;47.316;18.908;2023-04-01T17:52:37;5.78;;;2.95;;
70707;SDS011;58277;47.316;18.908;2023-04-01T17:57:46;4.47;;;2.70;;
70707;SDS011;58277;47.316;18.908;2023-04-01T18:00:23;3.58;;;2.40;;
70707;SDS011;58277;47.316;18.908;2023-04-01T18:16:48;1.95;;;1.15;;
70707;SDS011;58277;47.316;18.908;2023-04-01T18:30:37;2.55;;;1.50;;
70707;SDS011;58277;47.316;18.908;2023-04-01T18:33:03;2.40;;;1.60;;
70707;SDS011;58277;47.316;18.908;2023-04-01T18:35:57;4.22;;;1.40;;
70707;SDS011;58277;47.316;18.908;2023-04-01T18:38:47;4.00;;;1.70;;
70707;SDS011;58277;47.316;18.908;2023-04-01T18:41:15;2.97;;;1.38;;
70707;SDS011;58277;47.316;18.908;2023-04-01T18:47:19;2.40;;;1.20;;
70707;SDS011;58277;47.316;18.908;2023-04-01T18:49:55;1.90;;;1.13;;
70707;SDS011;58277;47.316;18.908;2023-04-01T18:52:40;2.45;;;1.23;;
70707;SDS011;58277;47.316;18.908;2023-04-01T18:58:07;2.67;;;1.58;;
70707;SDS011;58277;47.316;18.908;2023-04-01T19:00:48;2.50;;;1.67;;
70707;SDS011;58277;47.316;18.908;2023-04-01T19:03:32;5.90;;;2.30;;
70707;SDS011;58277;47.316;18.908;2023-04-01T19:06:06;6.28;;;2.33;;
70707;SDS011;58277;47.316;18.908;2023-04-01T19:08:39;4.93;;;2.42;;
70707;SDS011;58277;47.316;18.908;2023-04-01T19:33:49;5.72;;;2.60;;
70707;SDS011;58277;47.316;18.908;2023-04-01T19:38:55;5.47;;;2.60;;
70707;SDS011;58277;47.316;18.908;2023-04-01T19:41:51;4.80;;;2.50;;
70707;SDS011;58277;47.316;18.908;2023-04-01T19:44:41;5.28;;;2.80;;
70707;SDS011;58277;47.316;18.908;2023-04-01T19:50:15;5.72;;;2.22;;
70707;SDS011;58277;47.316;18.908;2023-04-01T19:52:49;4.00;;;2.35;;
70707;SDS011;58277;47.316;18.908;2023-04-01T19:57:55;4.05;;;2.15;;
70707;SDS011;58277;47.316;18.908;2023-04-01T20:06:03;3.42;;;2.13;;
70707;SDS011;58277;47.316;18.908;2023-04-01T20:19:15;3.20;;;2.13;;
70707;SDS011;58277;47.316;18.908;2023-04-01T20:21:48;3.80;;;2.28;;
70707;SDS011;58277;47.316;18.908;2023-04-01T20:26:36;5.37;;;2.30;;
70707;SDS011;58277;47.316;18.908;2023-04-01T20:31:40;5.35;;;2.42;;
70707;SDS011;58277;47.316;18.908;2023-04-01T20:34:07;6.07;;;2.40;;
70707;SDS011;58277;47.316;18.908;2023-04-01T20:50:48;6.65;;;3.28;;
70707;SDS011;58277;47.316;18.908;2023-04-01T21:07:34;7.17;;;3.50;;
70707;SDS011;58277;47.316;18.908;2023-04-01T21:13:17;5.82;;;3.40;;
70707;SDS011;58277;47.316;18.908;2023-04-01T21:16:15;6.70;;;3.70;;
70707;SDS011;58277;47.316;18.908;2023-04-01T21:24:02;6.05;;;3.58;;
70707;SDS011;58277;47.316;18.908;2023-04-01T21:26:57;5.88;;;3.50;;
70707;SDS011;58277;47.316;18.908;2023-04-01T21:29:50;6.90;;;3.75;;
70707;SDS011;58277;47.316;18.908;2023-04-01T21:37:45;5.20;;;2.90;;
70707;SDS011;58277;47.316;18.908;2023-04-01T21:43:01;4.25;;;2.78;;
70707;SDS011;58277;47.316;18.908;2023-04-01T21:52:30;4.22;;;2.45;;
70707;SDS011;58277;47.316;18.908;2023-04-01T22:06:26;6.97;;;2.30;;
70707;SDS011;58277;47.316;18.908;2023-04-01T22:08:56;3.25;;;2.30;;
70707;SDS011;58277;47.316;18.908;2023-04-01T22:14:01;4.55;;;2.28;;
70707;SDS011;58277;47.316;18.908;2023-04-01T22:21:40;3.45;;;1.92;;
70707;SDS011;58277;47.316;18.908;2023-04-01T22:24:29;3.85;;;2.00;;
70707;SDS011;58277;47.316;18.908;2023-04-01T22:27:00;3.45;;;1.80;;
70707;SDS011;58277;47.316;18.908;2023-04-01T22:29:31;3.10;;;1.97;;
70707;SDS011;58277;47.316;18.908;2023-04-01T22:32:08;5.05;;;1.90;;
70707;SDS011;58277;47.316;18.908;2023-04-01T22:50:58;2.78;;;1.45;;
70707;SDS011;58277;47.316;18.908;2023-04-01T22:53:20;2.33;;;1.50;;
70707;SDS011;58277;47.316;18.908;2023-04-01T22:55:50;2.10;;;1.40;;
70707;SDS011;58277;47.316;18.908;2023-04-01T22:58:21;2.40;;;1.42;;
70707;SDS011;58277;47.316;18.908;2023-04-01T23:00:54;2.83;;;1.40;;
70707;SDS011;58277;47.316;18.908;2023-04-01T23:03:30;2.10;;;1.15;;
70707;SDS011;58277;47.316;18.908;2023-04-01T23:05:56;1.80;;;1.10;;
70707;SDS011;58277;47.316;18.908;2023-04-01T23:10:55;1.58;;;1.02;;
70707;SDS011;58277;47.316;18.908;2023-04-01T23:13:29;2.08;;;1.17;;
70707;SDS011;58277;47.316;18.908;2023-04-01T23:15:57;3.10;;;1.20;;
70707;SDS011;58277;47.316;18.908;2023-04-01T23:18:31;2.33;;;1.20;;
70707;SDS011;58277;47.316;18.908;2023-04-01T23:21:23;1.83;;;1.20;;
70707;SDS011;58277;47.316;18.908;2023-04-01T23:26:47;2.03;;;1.20;;
70707;SDS011;58277;47.316;18.908;2023-04-01T23:29:21;2.03;;;1.35;;
70707;SDS011;58277;47.316;18.908;2023-04-01T23:31:45;2.60;;;1.30;;
70707;SDS011;58277;47.316;18.908;2023-04-01T23:36:37;2.00;;;1.17;;
70707;SDS011;58277;47.316;18.908;2023-04-01T23:41:59;1.83;;;0.90;;
70707;SDS011;58277;47.316;18.908;2023-04-01T23:44:27;2.22;;;1.40;;
70707;SDS011;58277;47.316;18.908;2023-04-01T23:46:51;2.37;;;1.23;;
70707;SDS011;58277;47.316;18.908;2023-04-01T23:49:19;2.58;;;1.30;;
70707;SDS011;58277;47.316;18.908;2023-04-01T23:51:52;3.00;;;1.50;;
70707;SDS011;58277;47.316;18.908;2023-04-01T23:54:34;3.20;;;1.30;;
70707;SDS011;58277;47.316;18.908;2023-04-01T23:57:18;2.47;;;1.23;;
70707;SDS011;58277;47.316;18.908;2023-04-01T23:59:44;2.60;;;1.57;;
